createdAt,value
2023-01-25T00:00:58.476Z,57.85
2023-01-25T00:01:58.506Z,50.60
2023-01-25T00:02:58.518Z,57.52
2023-01-25T00:03:58.453Z,59.94
2023-01-25T00:04:58.482Z,59.30
2023-01-25T00:05:58.439Z,57.69
2023-01-25T00:06:58.428Z,58.17
2023-01-25T00:07:58.440Z,60.91
2023-01-25T00:08:58.422Z,61.07
2023-01-25T00:09:58.451Z,58.65
2023-01-25T00:10:58.747Z,59.30
2023-01-25T00:11:58.405Z,61.23
2023-01-25T00:12:58.399Z,59.78
2023-01-25T00:13:58.388Z,58.97
2023-01-25T00:14:58.378Z,60.59
2023-01-25T00:15:58.394Z,61.23
2023-01-25T00:16:58.363Z,60.42
2023-01-25T00:17:58.372Z,61.71
2023-01-25T00:18:58.351Z,58.33
2023-01-25T00:19:58.403Z,60.59
2023-01-25T00:20:58.340Z,58.01
2023-01-25T00:21:58.349Z,57.69
2023-01-25T00:22:58.327Z,52.37
2023-01-25T00:23:58.376Z,56.07
2023-01-25T00:24:58.303Z,57.20
2023-01-25T00:25:58.802Z,62.52
2023-01-25T00:26:58.311Z,61.07
2023-01-25T00:27:58.295Z,56.56
2023-01-25T00:28:58.292Z,55.11
2023-01-25T00:29:58.293Z,48.50
2023-01-25T00:30:58.275Z,53.01
2023-01-25T00:31:58.335Z,53.01
2023-01-25T00:32:58.280Z,58.17
2023-01-25T00:33:58.265Z,55.11
2023-01-25T00:34:58.296Z,54.79
2023-01-25T00:35:58.252Z,55.11
2023-01-25T00:36:58.302Z,57.36
2023-01-25T00:37:58.234Z,56.88
2023-01-25T00:38:58.231Z,52.53
2023-01-25T00:39:58.223Z,55.43
2023-01-25T00:40:58.219Z,56.88
2023-01-25T00:41:58.223Z,53.50
2023-01-25T00:42:58.230Z,57.36
2023-01-25T00:43:58.199Z,58.17
2023-01-25T00:44:58.199Z,58.49
2023-01-25T00:45:58.198Z,58.33
2023-01-25T00:46:58.184Z,53.82
2023-01-25T00:47:58.183Z,48.82
2023-01-25T00:48:58.168Z,54.14
2023-01-25T00:49:58.158Z,56.24
2023-01-25T00:50:58.148Z,56.24
2023-01-25T00:51:58.158Z,58.65
2023-01-25T00:52:58.137Z,50.76
2023-01-25T00:53:58.131Z,58.33
2023-01-25T00:54:58.123Z,58.01
2023-01-25T00:55:58.120Z,60.10
2023-01-25T00:56:58.109Z,55.59
2023-01-25T00:57:58.155Z,51.88
2023-01-25T00:58:58.095Z,48.34
2023-01-25T00:59:58.079Z,48.02
2023-01-25T01:00:58.124Z,50.27
2023-01-25T01:01:58.073Z,58.17
2023-01-25T01:02:58.083Z,59.46
2023-01-25T01:03:58.076Z,59.14
2023-01-25T01:04:58.134Z,58.33
2023-01-25T01:05:58.043Z,56.72
2023-01-25T01:06:58.044Z,54.95
2023-01-25T01:07:58.035Z,53.98
2023-01-25T01:08:58.053Z,53.33
2023-01-25T01:09:58.014Z,52.05
2023-01-25T01:10:58.016Z,48.50
2023-01-25T01:11:58.007Z,48.50
2023-01-25T01:12:57.999Z,49.31
2023-01-25T01:13:58.023Z,51.88
2023-01-25T01:14:57.998Z,49.95
2023-01-25T01:15:57.964Z,51.24
2023-01-25T01:16:58.205Z,50.11
2023-01-25T01:17:58.964Z,51.88
2023-01-25T01:18:57.975Z,56.88
2023-01-25T01:19:57.955Z,52.21
2023-01-25T01:20:57.939Z,49.31
2023-01-25T01:21:57.947Z,52.53
2023-01-25T01:22:57.928Z,53.98
2023-01-25T01:23:57.991Z,54.95
2023-01-25T01:24:57.926Z,52.37
2023-01-25T01:25:57.910Z,67.51
2023-01-25T01:26:57.906Z,50.43
2023-01-25T01:27:57.894Z,56.88
2023-01-25T01:28:57.910Z,51.40
2023-01-25T01:29:57.896Z,55.59
2023-01-25T01:30:57.881Z,52.37
2023-01-25T01:31:58.038Z,56.07
2023-01-25T01:32:57.867Z,57.20
2023-01-25T01:33:57.863Z,52.37
2023-01-25T01:34:57.876Z,52.05
2023-01-25T01:35:57.842Z,54.62
2023-01-25T01:36:57.842Z,49.31
2023-01-25T01:37:57.854Z,48.18
2023-01-25T01:38:57.834Z,48.98
2023-01-25T01:39:57.814Z,48.18
2023-01-25T01:40:57.809Z,55.27
2023-01-25T01:41:57.821Z,55.91
2023-01-25T01:42:57.811Z,54.46
2023-01-25T01:43:57.800Z,52.69
2023-01-25T01:44:57.794Z,54.79
2023-01-25T01:45:57.921Z,55.59
2023-01-25T01:46:57.787Z,53.98
2023-01-25T01:47:57.779Z,54.79
2023-01-25T01:48:57.772Z,55.11
2023-01-25T01:49:57.777Z,55.43
2023-01-25T01:50:57.762Z,56.88
2023-01-25T01:51:57.753Z,56.40
2023-01-25T01:52:57.747Z,54.14
2023-01-25T01:53:57.744Z,48.66
2023-01-25T01:54:57.732Z,58.49
2023-01-25T01:55:57.713Z,56.72
2023-01-25T01:56:57.713Z,56.24
2023-01-25T01:57:57.711Z,55.43
2023-01-25T01:58:57.694Z,57.04
2023-01-25T01:59:57.717Z,56.88
2023-01-25T02:00:57.771Z,55.59
2023-01-25T02:01:57.688Z,49.31
2023-01-25T02:02:57.690Z,61.23
2023-01-25T02:03:57.679Z,57.52
2023-01-25T02:04:57.779Z,55.43
2023-01-25T02:05:57.672Z,52.85
2023-01-25T02:06:57.668Z,56.07
2023-01-25T02:07:57.643Z,53.50
2023-01-25T02:08:57.640Z,58.33
2023-01-25T02:09:57.634Z,57.20
2023-01-25T02:10:57.637Z,51.88
2023-01-25T02:11:58.620Z,56.40
2023-01-25T02:12:57.608Z,59.78
2023-01-25T02:13:57.609Z,62.04
2023-01-25T02:14:57.590Z,54.46
2023-01-25T02:15:57.663Z,49.95
2023-01-25T02:16:57.589Z,56.24
2023-01-25T02:17:57.586Z,57.20
2023-01-25T02:18:57.580Z,56.07
2023-01-25T02:19:57.565Z,59.94
2023-01-25T02:20:58.015Z,58.81
2023-01-25T02:21:58.572Z,57.36
2023-01-25T02:22:57.551Z,49.15
2023-01-25T02:23:57.597Z,54.30
2023-01-25T02:24:57.534Z,55.59
2023-01-25T02:25:57.538Z,57.04
2023-01-25T02:26:57.545Z,56.24
2023-01-25T02:27:57.550Z,55.75
2023-01-25T02:28:57.518Z,51.72
2023-01-25T02:29:57.507Z,49.63
2023-01-25T02:30:57.590Z,52.53
2023-01-25T02:31:57.522Z,58.97
2023-01-25T02:32:57.486Z,59.62
2023-01-25T02:33:57.479Z,58.33
2023-01-25T02:34:57.474Z,59.46
2023-01-25T02:35:57.469Z,53.98
2023-01-25T02:36:57.459Z,55.27
2023-01-25T02:37:57.486Z,50.92
2023-01-25T02:38:57.441Z,60.59
2023-01-25T02:39:57.456Z,57.85
2023-01-25T02:40:57.437Z,55.43
2023-01-25T02:41:57.417Z,58.01
2023-01-25T02:42:57.450Z,57.04
2023-01-25T02:43:57.411Z,60.75
2023-01-25T02:44:57.453Z,58.49
2023-01-25T02:45:57.440Z,57.85
2023-01-25T02:46:57.388Z,54.46
2023-01-25T02:47:57.390Z,55.27
2023-01-25T02:48:57.393Z,57.36
2023-01-25T02:49:57.373Z,55.91
2023-01-25T02:50:57.373Z,52.37
2023-01-25T02:51:57.426Z,56.72
2023-01-25T02:52:57.351Z,55.91
2023-01-25T02:53:57.376Z,58.65
2023-01-25T02:54:57.346Z,58.17
2023-01-25T02:55:57.352Z,52.53
2023-01-25T02:56:57.334Z,56.88
2023-01-25T02:57:57.342Z,56.40
2023-01-25T02:58:57.331Z,57.69
2023-01-25T02:59:57.315Z,57.36
2023-01-25T03:00:57.322Z,58.01
2023-01-25T03:01:57.371Z,57.36
2023-01-25T03:02:57.315Z,55.59
2023-01-25T03:03:57.291Z,56.07
2023-01-25T03:04:57.283Z,59.14
2023-01-25T03:05:57.303Z,53.33
2023-01-25T03:06:57.264Z,59.14
2023-01-25T03:07:57.263Z,57.04
2023-01-25T03:08:57.252Z,49.15
2023-01-25T03:09:57.248Z,55.75
2023-01-25T03:10:57.243Z,58.33
2023-01-25T03:11:57.263Z,55.43
2023-01-25T03:12:57.233Z,55.91
2023-01-25T03:13:57.219Z,52.21
2023-01-25T03:14:57.207Z,54.79
2023-01-25T03:15:58.284Z,58.01
2023-01-25T03:16:57.211Z,58.81
2023-01-25T03:17:57.195Z,55.11
2023-01-25T03:18:57.191Z,56.07
2023-01-25T03:19:57.183Z,58.49
2023-01-25T03:20:57.171Z,55.43
2023-01-25T03:21:57.183Z,55.27
2023-01-25T03:22:57.160Z,58.49
2023-01-25T03:23:57.248Z,56.40
2023-01-25T03:24:57.155Z,57.36
2023-01-25T03:25:57.137Z,55.59
2023-01-25T03:26:57.137Z,56.88
2023-01-25T03:27:57.127Z,53.66
2023-01-25T03:28:57.155Z,56.24
2023-01-25T03:29:57.110Z,55.91
2023-01-25T03:30:57.202Z,56.40
2023-01-25T03:31:57.212Z,58.33
2023-01-25T03:32:57.092Z,58.65
2023-01-25T03:33:57.086Z,61.23
2023-01-25T03:34:57.100Z,56.40
2023-01-25T03:35:58.107Z,58.81
2023-01-25T03:36:57.072Z,60.10
2023-01-25T03:37:57.060Z,60.91
2023-01-25T03:38:57.067Z,60.26
2023-01-25T03:39:57.070Z,58.01
2023-01-25T03:40:57.043Z,58.65
2023-01-25T03:41:57.040Z,63.00
2023-01-25T03:42:57.027Z,57.69
2023-01-25T03:43:57.018Z,59.30
2023-01-25T03:44:57.020Z,58.65
2023-01-25T03:45:57.018Z,59.30
2023-01-25T03:46:57.109Z,61.23
2023-01-25T03:47:57.000Z,62.84
2023-01-25T03:48:56.985Z,59.30
2023-01-25T03:49:57.001Z,61.71
2023-01-25T03:50:56.971Z,59.46
2023-01-25T03:51:56.986Z,57.36
2023-01-25T03:52:56.973Z,58.17
2023-01-25T03:53:56.954Z,59.14
2023-01-25T03:54:56.970Z,60.26
2023-01-25T03:55:56.936Z,59.14
2023-01-25T03:56:57.953Z,61.07
2023-01-25T03:57:56.941Z,59.30
2023-01-25T03:58:56.932Z,57.36
2023-01-25T03:59:56.930Z,60.75
2023-01-25T04:00:56.947Z,61.39
2023-01-25T04:01:56.995Z,54.46
2023-01-25T04:02:56.907Z,64.94
2023-01-25T04:03:56.916Z,59.14
2023-01-25T04:04:56.896Z,58.49
2023-01-25T04:05:56.895Z,56.24
2023-01-25T04:06:56.883Z,57.85
2023-01-25T04:07:56.872Z,55.43
2023-01-25T04:08:56.896Z,57.52
2023-01-25T04:09:56.862Z,56.40
2023-01-25T04:10:56.852Z,60.26
2023-01-25T04:11:56.846Z,61.71
2023-01-25T04:12:56.834Z,58.65
2023-01-25T04:13:56.822Z,62.20
2023-01-25T04:14:56.840Z,62.20
2023-01-25T04:15:56.820Z,61.71
2023-01-25T04:16:56.803Z,62.36
2023-01-25T04:17:56.802Z,60.75
2023-01-25T04:18:56.795Z,58.49
2023-01-25T04:19:56.808Z,59.30
2023-01-25T04:20:56.802Z,59.14
2023-01-25T04:21:56.773Z,61.87
2023-01-25T04:22:56.778Z,59.46
2023-01-25T04:23:56.815Z,62.68
2023-01-25T04:24:56.761Z,60.26
2023-01-25T04:25:56.742Z,58.97
2023-01-25T04:26:56.742Z,59.62
2023-01-25T04:27:56.759Z,59.94
2023-01-25T04:28:56.755Z,58.65
2023-01-25T04:29:56.722Z,58.97
2023-01-25T04:30:56.719Z,58.97
2023-01-25T04:31:56.770Z,57.36
2023-01-25T04:32:56.713Z,58.17
2023-01-25T04:33:56.715Z,57.69
2023-01-25T04:34:56.702Z,57.52
2023-01-25T04:35:56.720Z,58.33
2023-01-25T04:36:56.683Z,59.62
2023-01-25T04:37:56.667Z,59.94
2023-01-25T04:38:56.673Z,59.14
2023-01-25T04:39:56.650Z,58.17
2023-01-25T04:40:56.662Z,61.23
2023-01-25T04:41:56.655Z,59.94
2023-01-25T04:42:56.640Z,59.78
2023-01-25T04:43:56.626Z,57.85
2023-01-25T04:44:56.631Z,57.36
2023-01-25T04:45:56.675Z,59.14
2023-01-25T04:46:56.626Z,58.01
2023-01-25T04:47:56.599Z,60.10
2023-01-25T04:48:56.608Z,59.78
2023-01-25T04:49:56.592Z,58.81
2023-01-25T04:50:56.585Z,58.49
2023-01-25T04:51:56.578Z,58.97
2023-01-25T04:52:56.587Z,60.59
2023-01-25T04:53:56.585Z,58.33
2023-01-25T04:54:56.568Z,58.65
2023-01-25T04:55:56.556Z,58.49
2023-01-25T04:56:56.558Z,58.49
2023-01-25T04:57:56.563Z,56.40
2023-01-25T04:58:56.552Z,56.40
2023-01-25T04:59:56.535Z,56.72
2023-01-25T05:00:56.517Z,56.24
2023-01-25T05:01:56.551Z,57.69
2023-01-25T05:02:56.551Z,56.07
2023-01-25T05:03:56.503Z,62.68
2023-01-25T05:04:56.493Z,57.04
2023-01-25T05:05:57.498Z,61.23
2023-01-25T05:06:56.493Z,59.94
2023-01-25T05:07:56.487Z,61.07
2023-01-25T05:08:56.494Z,58.01
2023-01-25T05:09:56.475Z,56.88
2023-01-25T05:10:56.469Z,58.81
2023-01-25T05:11:56.462Z,58.49
2023-01-25T05:12:56.454Z,57.52
2023-01-25T05:13:56.442Z,58.33
2023-01-25T05:14:56.441Z,58.17
2023-01-25T05:15:56.435Z,57.52
2023-01-25T05:16:56.540Z,59.46
2023-01-25T05:17:56.419Z,65.26
2023-01-25T05:18:56.428Z,58.33
2023-01-25T05:19:56.410Z,58.01
2023-01-25T05:20:56.412Z,61.23
2023-01-25T05:21:56.397Z,58.49
2023-01-25T05:22:56.390Z,57.52
2023-01-25T05:23:56.429Z,57.52
2023-01-25T05:24:56.379Z,58.65
2023-01-25T05:25:56.371Z,59.46
2023-01-25T05:26:56.364Z,60.75
2023-01-25T05:27:56.350Z,60.10
2023-01-25T05:28:56.351Z,60.26
2023-01-25T05:29:56.347Z,59.46
2023-01-25T05:30:56.402Z,57.69
2023-01-25T05:31:56.398Z,59.46
2023-01-25T05:32:56.326Z,59.62
2023-01-25T05:33:56.316Z,59.46
2023-01-25T05:34:56.306Z,59.46
2023-01-25T05:35:56.312Z,63.33
2023-01-25T05:36:56.299Z,60.59
2023-01-25T05:37:56.287Z,61.07
2023-01-25T05:38:56.283Z,58.81
2023-01-25T05:39:56.293Z,60.42
2023-01-25T05:40:56.270Z,62.68
2023-01-25T05:41:56.262Z,63.49
2023-01-25T05:42:56.254Z,61.07
2023-01-25T05:43:56.245Z,61.55
2023-01-25T05:44:56.271Z,61.23
2023-01-25T05:45:56.272Z,60.42
2023-01-25T05:46:56.243Z,65.42
2023-01-25T05:47:56.214Z,60.91
2023-01-25T05:48:56.222Z,61.07
2023-01-25T05:49:56.236Z,59.14
2023-01-25T05:50:56.201Z,61.07
2023-01-25T05:51:56.193Z,60.10
2023-01-25T05:52:56.195Z,60.10
2023-01-25T05:53:56.180Z,61.55
2023-01-25T05:54:56.193Z,62.84
2023-01-25T05:55:56.168Z,58.97
2023-01-25T05:56:56.168Z,59.14
2023-01-25T05:57:56.160Z,60.42
2023-01-25T05:58:56.146Z,59.78
2023-01-25T05:59:57.176Z,64.29
2023-01-25T06:00:56.155Z,60.42
2023-01-25T06:01:56.123Z,61.71
2023-01-25T06:02:56.384Z,62.20
2023-01-25T06:03:56.117Z,60.59
2023-01-25T06:04:56.118Z,56.07
2023-01-25T06:05:56.107Z,59.78
2023-01-25T06:06:56.115Z,62.68
2023-01-25T06:07:56.108Z,56.88
2023-01-25T06:08:56.101Z,58.97
2023-01-25T06:09:56.098Z,58.49
2023-01-25T06:10:56.071Z,58.65
2023-01-25T06:11:56.049Z,60.91
2023-01-25T06:12:56.079Z,57.69
2023-01-25T06:13:56.049Z,59.94
2023-01-25T06:14:56.034Z,59.46
2023-01-25T06:15:56.118Z,58.97
2023-01-25T06:16:56.024Z,58.17
2023-01-25T06:17:56.042Z,59.46
2023-01-25T06:18:56.015Z,61.55
2023-01-25T06:19:56.010Z,61.39
2023-01-25T06:20:56.015Z,62.36
2023-01-25T06:21:56.093Z,59.78
2023-01-25T06:22:56.056Z,61.07
2023-01-25T06:23:56.042Z,61.23
2023-01-25T06:24:55.975Z,60.91
2023-01-25T06:25:55.963Z,60.75
2023-01-25T06:26:55.981Z,62.04
2023-01-25T06:27:55.961Z,61.07
2023-01-25T06:28:55.988Z,61.71
2023-01-25T06:29:55.946Z,62.68
2023-01-25T06:30:56.026Z,60.91
2023-01-25T06:31:55.984Z,61.39
2023-01-25T06:32:55.949Z,62.36
2023-01-25T06:33:55.922Z,72.03
2023-01-25T06:34:55.915Z,82.50
2023-01-25T06:35:55.915Z,69.13
2023-01-25T06:36:55.908Z,66.06
2023-01-25T06:37:55.905Z,64.61
2023-01-25T06:38:55.877Z,81.21
2023-01-25T06:39:55.906Z,72.35
2023-01-25T06:40:55.874Z,61.39
2023-01-25T06:41:55.864Z,60.75
2023-01-25T06:42:55.859Z,60.91
2023-01-25T06:43:55.877Z,61.71
2023-01-25T06:44:55.842Z,61.87
2023-01-25T06:45:55.841Z,62.68
2023-01-25T06:46:55.874Z,61.39
2023-01-25T06:47:55.822Z,62.04
2023-01-25T06:48:55.930Z,62.36
2023-01-25T06:49:56.729Z,60.26
2023-01-25T06:50:55.846Z,67.03
2023-01-25T06:51:55.803Z,59.46
2023-01-25T06:52:55.795Z,64.78
2023-01-25T06:53:55.790Z,71.70
2023-01-25T06:54:55.783Z,65.26
2023-01-25T06:55:55.805Z,61.07
2023-01-25T06:56:55.773Z,58.97
2023-01-25T06:57:55.761Z,59.14
2023-01-25T06:58:55.762Z,59.94
2023-01-25T06:59:55.752Z,61.55
2023-01-25T07:00:55.747Z,60.42
2023-01-25T07:01:55.775Z,61.87
2023-01-25T07:02:55.803Z,64.13
2023-01-25T07:03:55.738Z,62.04
2023-01-25T07:04:55.719Z,62.20
2023-01-25T07:05:55.706Z,61.55
2023-01-25T07:06:55.719Z,62.20
2023-01-25T07:07:55.691Z,61.07
2023-01-25T07:08:55.693Z,60.42
2023-01-25T07:09:55.689Z,61.55
2023-01-25T07:10:55.678Z,65.10
2023-01-25T07:11:55.732Z,59.94
2023-01-25T07:12:55.678Z,63.81
2023-01-25T07:13:55.657Z,62.20
2023-01-25T07:14:55.649Z,62.36
2023-01-25T07:15:55.644Z,62.04
2023-01-25T07:16:55.661Z,63.65
2023-01-25T07:17:57.896Z,59.78
2023-01-25T07:18:56.633Z,60.91
2023-01-25T07:19:55.645Z,63.16
2023-01-25T07:20:55.610Z,61.71
2023-01-25T07:21:55.763Z,60.10
2023-01-25T07:22:55.605Z,60.42
2023-01-25T07:23:55.726Z,61.55
2023-01-25T07:24:55.603Z,61.87
2023-01-25T07:25:55.633Z,58.65
2023-01-25T07:26:55.599Z,60.91
2023-01-25T07:27:55.580Z,61.87
2023-01-25T07:28:55.561Z,63.00
2023-01-25T07:29:55.557Z,59.78
2023-01-25T07:30:55.580Z,59.62
2023-01-25T07:31:55.619Z,60.10
2023-01-25T07:32:55.583Z,59.62
2023-01-25T07:33:55.536Z,60.26
2023-01-25T07:34:55.535Z,65.26
2023-01-25T07:35:55.518Z,60.91
2023-01-25T07:36:55.516Z,62.20
2023-01-25T07:37:55.541Z,61.71
2023-01-25T07:38:55.511Z,71.54
2023-01-25T07:39:55.493Z,61.55
2023-01-25T07:40:55.489Z,61.07
2023-01-25T07:41:55.481Z,62.04
2023-01-25T07:42:55.478Z,64.94
2023-01-25T07:43:55.484Z,65.42
2023-01-25T07:44:55.464Z,61.23
2023-01-25T07:45:55.456Z,63.00
2023-01-25T07:46:55.448Z,61.39
2023-01-25T07:47:55.460Z,61.55
2023-01-25T07:48:55.456Z,67.51
2023-01-25T07:49:55.455Z,58.97
2023-01-25T07:50:55.442Z,62.36
2023-01-25T07:51:55.428Z,60.10
2023-01-25T07:52:55.417Z,63.81
2023-01-25T07:53:55.414Z,59.94
2023-01-25T07:54:55.407Z,60.10
2023-01-25T07:55:55.392Z,61.39
2023-01-25T07:56:55.395Z,59.62
2023-01-25T07:57:55.383Z,58.97
2023-01-25T07:58:55.383Z,58.49
2023-01-25T07:59:55.387Z,59.30
2023-01-25T08:00:55.359Z,59.62
2023-01-25T08:01:55.362Z,58.81
2023-01-25T08:02:55.360Z,60.91
2023-01-25T08:03:55.348Z,61.23
2023-01-25T08:04:55.347Z,61.23
2023-01-25T08:05:55.350Z,63.33
2023-01-25T08:06:55.329Z,62.68
2023-01-25T08:07:55.327Z,60.75
2023-01-25T08:08:55.333Z,62.36
2023-01-25T08:09:55.307Z,61.87
2023-01-25T08:10:55.334Z,60.91
2023-01-25T08:11:55.293Z,60.59
2023-01-25T08:12:55.297Z,60.91
2023-01-25T08:13:55.279Z,62.04
2023-01-25T08:14:55.273Z,60.91
2023-01-25T08:15:55.276Z,59.30
2023-01-25T08:16:55.278Z,61.55
2023-01-25T08:17:55.272Z,60.91
2023-01-25T08:18:55.256Z,62.04
2023-01-25T08:19:55.259Z,62.04
2023-01-25T08:20:55.239Z,60.26
2023-01-25T08:21:55.263Z,62.68
2023-01-25T08:22:55.233Z,62.68
2023-01-25T08:23:55.283Z,59.78
2023-01-25T08:24:55.217Z,60.10
2023-01-25T08:25:55.208Z,61.55
2023-01-25T08:26:55.208Z,61.07
2023-01-25T08:27:55.209Z,60.75
2023-01-25T08:28:55.215Z,60.91
2023-01-25T08:29:55.188Z,60.10
2023-01-25T08:30:57.518Z,59.30
2023-01-25T08:31:56.185Z,61.23
2023-01-25T08:32:55.161Z,61.39
2023-01-25T08:33:55.172Z,63.81
2023-01-25T08:34:55.158Z,60.59
2023-01-25T08:35:55.142Z,61.87
2023-01-25T08:36:55.150Z,62.20
2023-01-25T08:37:55.135Z,61.23
2023-01-25T08:38:55.124Z,61.87
2023-01-25T08:39:55.247Z,61.39
2023-01-25T08:40:55.116Z,61.07
2023-01-25T08:41:55.111Z,63.33
2023-01-25T08:42:55.130Z,62.68
2023-01-25T08:43:55.095Z,62.04
2023-01-25T08:44:55.107Z,61.23
2023-01-25T08:45:55.087Z,62.04
2023-01-25T08:46:55.102Z,62.04
2023-01-25T08:47:55.075Z,61.39
2023-01-25T08:48:55.072Z,59.62
2023-01-25T08:49:55.082Z,66.23
2023-01-25T08:50:55.055Z,63.49
2023-01-25T08:51:55.049Z,63.65
2023-01-25T08:52:55.043Z,61.87
2023-01-25T08:53:55.051Z,67.68
2023-01-25T08:54:55.035Z,60.42
2023-01-25T08:55:55.046Z,62.84
2023-01-25T08:56:55.019Z,62.68
2023-01-25T08:57:56.488Z,62.52
2023-01-25T08:58:55.220Z,61.39
2023-01-25T08:59:55.015Z,61.07
2023-01-25T09:00:55.005Z,62.20
2023-01-25T09:01:54.983Z,61.55
2023-01-25T09:02:54.975Z,61.07
2023-01-25T09:03:55.058Z,62.84
2023-01-25T09:04:54.955Z,61.39
2023-01-25T09:05:54.996Z,60.10
2023-01-25T09:06:54.952Z,58.97
2023-01-25T09:07:54.956Z,62.04
2023-01-25T09:08:54.968Z,58.81
2023-01-25T09:09:54.947Z,65.58
2023-01-25T09:10:54.950Z,60.75
2023-01-25T09:11:54.927Z,65.42
2023-01-25T09:12:54.918Z,62.68
2023-01-25T09:13:54.902Z,61.23
2023-01-25T09:14:54.903Z,59.14
2023-01-25T09:15:54.911Z,59.62
2023-01-25T09:16:54.943Z,59.62
2023-01-25T09:17:54.896Z,62.68
2023-01-25T09:18:54.890Z,58.81
2023-01-25T09:19:54.890Z,58.17
2023-01-25T09:20:54.869Z,59.94
2023-01-25T09:21:54.915Z,62.84
2023-01-25T09:22:54.845Z,60.59
2023-01-25T09:24:05.942Z,60.59
2023-01-25T09:24:56.849Z,59.78
2023-01-25T09:25:54.846Z,60.10
2023-01-25T09:26:59.619Z,62.36
2023-01-25T09:27:56.829Z,60.42
2023-01-25T09:28:54.827Z,60.75
2023-01-25T09:30:13.713Z,59.78
2023-01-25T09:31:18.742Z,60.26
2023-01-25T09:31:56.914Z,61.71
2023-01-25T09:32:54.883Z,60.42
2023-01-25T09:33:54.794Z,60.91
2023-01-25T09:34:54.798Z,61.55
2023-01-25T09:35:54.776Z,58.65
2023-01-25T09:36:54.778Z,61.07
2023-01-25T09:37:54.767Z,61.39
2023-01-25T09:38:54.764Z,61.55
2023-01-25T09:39:54.738Z,62.36
2023-01-25T09:40:54.738Z,61.23
2023-01-25T09:41:56.262Z,69.61
2023-01-25T09:42:55.771Z,60.75
2023-01-25T09:43:55.662Z,61.87
2023-01-25T09:44:54.725Z,62.20
2023-01-25T09:45:54.711Z,62.84
2023-01-25T09:46:54.696Z,59.62
2023-01-25T09:47:54.714Z,60.75
2023-01-25T09:49:06.344Z,61.39
2023-01-25T09:49:56.681Z,62.04
2023-01-25T09:50:54.666Z,61.55
2023-01-25T09:51:54.670Z,62.20
2023-01-25T09:52:54.683Z,62.68
2023-01-25T09:53:54.652Z,61.39
2023-01-25T09:54:54.643Z,61.39
2023-01-25T09:55:54.652Z,60.59
2023-01-25T09:56:54.649Z,59.62
2023-01-25T09:57:54.627Z,63.65
2023-01-25T09:58:54.637Z,59.62
2023-01-25T09:59:54.619Z,60.91
2023-01-25T10:00:54.591Z,60.59
2023-01-25T10:01:54.665Z,59.46
2023-01-25T10:02:54.929Z,60.42
2023-01-25T10:03:55.616Z,63.16
2023-01-25T10:04:54.595Z,61.55
2023-01-25T10:05:54.580Z,65.42
2023-01-25T10:07:01.004Z,68.00
2023-01-25T10:07:56.562Z,60.75
2023-01-25T10:08:54.563Z,65.90
2023-01-25T10:09:54.543Z,61.55
2023-01-25T10:10:54.534Z,62.52
2023-01-25T10:11:54.565Z,61.87
2023-01-25T10:12:54.535Z,62.20
2023-01-25T10:13:54.523Z,62.68
2023-01-25T10:14:54.541Z,60.91
2023-01-25T10:15:54.546Z,62.04
2023-01-25T10:16:54.530Z,60.91
2023-01-25T10:17:54.489Z,61.39
2023-01-25T10:18:54.483Z,61.71
2023-01-25T10:19:54.499Z,60.75
2023-01-25T10:20:54.480Z,63.97
2023-01-25T10:21:54.486Z,62.36
2023-01-25T10:22:54.471Z,60.10
2023-01-25T10:23:54.489Z,61.55
2023-01-25T10:24:54.460Z,63.49
2023-01-25T10:25:54.456Z,63.33
2023-01-25T10:26:54.450Z,61.71
2023-01-25T10:27:54.436Z,62.52
2023-01-25T10:28:54.433Z,64.29
2023-01-25T10:29:54.428Z,61.71
2023-01-25T10:30:54.496Z,61.39
2023-01-25T10:31:54.499Z,62.20
2023-01-25T10:32:56.121Z,64.94
2023-01-25T10:33:55.398Z,61.87
2023-01-25T10:34:57.251Z,60.91
2023-01-25T10:35:55.396Z,63.16
2023-01-25T10:36:54.394Z,64.29
2023-01-25T10:37:54.381Z,61.87
2023-01-25T10:38:54.369Z,62.52
2023-01-25T10:39:54.379Z,61.55
2023-01-25T10:40:54.354Z,62.84
2023-01-25T10:41:54.348Z,62.68
2023-01-25T10:42:54.354Z,64.94
2023-01-25T10:43:54.335Z,63.65
2023-01-25T10:44:54.330Z,62.84
2023-01-25T10:45:55.146Z,62.04
2023-01-25T10:46:54.353Z,61.39
2023-01-25T10:47:54.322Z,61.87
2023-01-25T10:48:54.305Z,64.61
2023-01-25T10:49:54.303Z,62.20
2023-01-25T10:50:54.317Z,67.19
2023-01-25T10:51:54.300Z,62.04
2023-01-25T10:52:54.277Z,62.04
2023-01-25T10:53:54.279Z,61.23
2023-01-25T10:54:54.280Z,63.49
2023-01-25T10:55:54.274Z,61.71
2023-01-25T10:56:54.263Z,65.26
2023-01-25T10:57:54.255Z,60.59
2023-01-25T10:58:54.246Z,61.07
2023-01-25T10:59:54.244Z,61.55
2023-01-25T11:00:54.231Z,62.52
2023-01-25T11:01:54.258Z,63.16
2023-01-25T11:02:54.292Z,63.00
2023-01-25T11:03:54.219Z,68.16
2023-01-25T11:04:54.199Z,60.75
2023-01-25T11:05:54.198Z,58.97
2023-01-25T11:06:54.204Z,61.39
2023-01-25T11:07:54.196Z,60.75
2023-01-25T11:08:54.178Z,62.20
2023-01-25T11:09:54.197Z,59.30
2023-01-25T11:10:54.168Z,60.59
2023-01-25T11:11:54.150Z,60.59
2023-01-25T11:12:54.149Z,64.61
2023-01-25T11:13:54.151Z,59.62
2023-01-25T11:14:54.155Z,60.91
2023-01-25T11:15:54.169Z,62.68
2023-01-25T11:16:54.131Z,61.23
2023-01-25T11:17:54.112Z,65.90
2023-01-25T11:18:54.129Z,60.26
2023-01-25T11:19:54.120Z,59.30
2023-01-25T11:20:54.105Z,71.06
2023-01-25T11:21:54.614Z,60.42
2023-01-25T11:22:54.090Z,61.23
2023-01-25T11:23:54.102Z,65.90
2023-01-25T11:24:54.084Z,60.59
2023-01-25T11:25:55.067Z,59.94
2023-01-25T11:26:54.049Z,60.10
2023-01-25T11:27:55.051Z,59.94
2023-01-25T11:28:54.044Z,57.36
2023-01-25T11:29:54.055Z,58.49
2023-01-25T11:30:54.135Z,60.10
2023-01-25T11:31:54.039Z,59.62
2023-01-25T11:32:54.020Z,58.17
2023-01-25T11:33:54.004Z,59.94
2023-01-25T11:34:54.006Z,65.26
2023-01-25T11:35:53.991Z,57.85
2023-01-25T11:36:54.000Z,59.14
2023-01-25T11:37:53.977Z,60.42
2023-01-25T11:38:53.999Z,61.71
2023-01-25T11:39:53.964Z,62.36
2023-01-25T11:40:53.975Z,66.71
2023-01-25T11:41:53.966Z,62.84
2023-01-25T11:42:53.956Z,63.33
2023-01-25T11:43:53.961Z,61.23
2023-01-25T11:44:53.936Z,61.07
2023-01-25T11:45:54.533Z,60.42
2023-01-25T11:46:53.931Z,66.87
2023-01-25T11:47:53.916Z,60.91
2023-01-25T11:48:53.926Z,62.84
2023-01-25T11:49:53.908Z,64.61
2023-01-25T11:50:53.895Z,63.97
2023-01-25T11:51:54.873Z,62.04
2023-01-25T11:52:54.887Z,60.75
2023-01-25T11:53:53.882Z,63.00
2023-01-25T11:54:53.885Z,62.20
2023-01-25T11:55:53.870Z,61.55
2023-01-25T11:56:53.855Z,62.52
2023-01-25T11:57:53.863Z,62.36
2023-01-25T11:58:53.853Z,63.16
2023-01-25T11:59:53.842Z,61.55
2023-01-25T12:00:53.832Z,62.04
2023-01-25T12:01:53.819Z,61.87
2023-01-25T12:02:53.823Z,61.23
2023-01-25T12:03:53.863Z,60.75
2023-01-25T12:04:53.824Z,59.30
2023-01-25T12:05:53.787Z,61.55
2023-01-25T12:06:53.779Z,62.84
2023-01-25T12:07:53.789Z,59.62
2023-01-25T12:08:53.777Z,60.10
2023-01-25T12:09:53.793Z,61.87
2023-01-25T12:10:53.763Z,62.68
2023-01-25T12:11:53.809Z,64.13
2023-01-25T12:12:53.752Z,66.55
2023-01-25T12:13:53.740Z,62.20
2023-01-25T12:14:53.737Z,62.52
2023-01-25T12:15:53.774Z,63.16
2023-01-25T12:16:53.733Z,61.71
2023-01-25T12:17:53.767Z,61.71
2023-01-25T12:18:53.712Z,64.45
2023-01-25T12:19:53.701Z,60.91
2023-01-25T12:20:53.711Z,63.81
2023-01-25T12:21:53.701Z,63.97
2023-01-25T12:22:53.685Z,63.65
2023-01-25T12:23:53.696Z,66.39
2023-01-25T12:24:53.676Z,63.16
2023-01-25T12:25:53.665Z,62.84
2023-01-25T12:26:53.662Z,65.10
2023-01-25T12:27:53.707Z,64.94
2023-01-25T12:28:53.652Z,63.65
2023-01-25T12:29:53.639Z,62.84
2023-01-25T12:30:53.654Z,63.33
2023-01-25T12:31:53.646Z,64.78
2023-01-25T12:32:57.288Z,63.33
2023-01-25T12:33:54.639Z,64.94
2023-01-25T12:34:53.611Z,63.16
2023-01-25T12:35:53.588Z,62.20
2023-01-25T12:36:53.600Z,62.04
2023-01-25T12:37:53.595Z,59.94
2023-01-25T12:38:53.601Z,60.91
2023-01-25T12:39:53.564Z,61.87
2023-01-25T12:40:53.580Z,60.91
2023-01-25T12:41:53.578Z,61.71
2023-01-25T12:42:53.559Z,61.39
2023-01-25T12:43:53.553Z,62.84
2023-01-25T12:44:53.553Z,62.68
2023-01-25T12:45:53.531Z,61.71
2023-01-25T12:46:53.536Z,65.10
2023-01-25T12:47:53.531Z,67.84
2023-01-25T12:48:53.519Z,68.80
2023-01-25T12:49:53.519Z,62.20
2023-01-25T12:50:53.536Z,61.55
2023-01-25T12:51:53.511Z,62.68
2023-01-25T12:52:53.491Z,62.68